Terminal Aerodrome Forecast
Issued by NWS

Home | Current Version | Previous Version | Text Only | Print | Product List | Glossary On
Versions: 1 2 3 4 5 6 7 8 9 10 11 12 13 14 15 16 17 18 19 20 21 22 23 24
586
FTUS43 KMQT 292334
TAFCMX
TAF
KCMX 292334Z 3000/3024 28016G24KT P6SM OVC025
     FM300200 29012KT P6SM BKN035
     FM300400 29011KT P6SM SCT040
     FM301500 28015G20KT P6SM SKC=

USA.gov is the U.S. government's official web portal to all federal, state and local government web resources and services.